windsock image

Welcome to Bigfield Strip.

anemometer image
     

 Help for dials.  
 
Local Met:

Wind:   
10 Min average:  
75 ° / 4.2 kts (5.2)
88° / 3.1

Temperature:  
21.3°C C
Dew Point:  
17.1°C C
QNH:  
Trend:  
1022.4 mb mb
+0.4mb/hr
BigField Strip. This image updates approximately every minute, it can have a two minute delay.  
 

Humidity:  
77 %
Sunrise:   04:11z
Sunset:   20:08z
Updated:  
  UTC
 
   More met info, trends, radar, history etc. available here   

LUTON Metar   EGGW 221850Z 02009KT CAVOK 20/16 Q1023
 
  TAF   2014/07/22 18:15 TAF EGGW 221658Z 2218/2318 04008KT 9999 SCT030 BECMG 2300/2303 6000 BKN012 PROB30 TEMPO 2300/2306 3000 BR BKN006 BECMG 2306/2309 9999 NSW SCT030
 
BENSON Metar   EGUB 221850Z 02011KT CAVOK 23/16 Q1022 BLU NOSIG
 
  TAF   2014/07/22 18:03 TAF EGUB 221619Z 2218/2302 01008KT 9999 FEW045 PROB40 2300/2302 5000 BR SCT006
 
Big Field view 1 icon   Big Field view 2 icon   Big Field view 3 icon   Chart AL3a in PDF icon   Chart AL3a in Word icon

WARNING:
This information is provided by the Airstrip unofficial weather station, DO NOT depend on the data provided here for any purpose.
This page is updated for latest Metars & TAF's every 5 minutes. Refresh the browser to check for the lastest.
Page designed for a minimum browser size of 1024x768.
© Copyright 2014 BigField Strip. This page auto generated 19:26 UTC - 22/07/2014   Contact Us
Valid HTML 4.01 Transitional     Windows uptime: 1 Days 16 Hours 54 Minutes 7 Seconds    WD started: 02:38 21/07/14    Free memory: 1514MB     Valid CSS!